Terminal Aerodrome Forecast
Issued by NWS Quad Cities IA IL

Home | Current Version | Previous Version | Text Only | Print | Product List | Glossary On
Versions: 1 2 3 4 5 6 7 8 9 10 11 12 13
000
FTUS43 KDVN 220500
TAFMLI
TAF
KMLI 220520Z 2206/2306 15010KT P6SM SCT250
     FM221200 18010KT P6SM SCT070 BKN150
     FM221800 24012KT P6SM SCT050 BKN120
     FM230000 33007KT P6SM BKN150=

USA.gov is the U.S. government's official web portal to all federal, state and local government web resources and services.